Habay-la-Vieille, Belgium
Current Conditions -  °F | °C
As of 2:50 PM on Wednesday 28 Jan 2015 (Local Time) from ELLX Reporting Station
Light Rain Light Rain  
Wind Chill: 28°   Ceiling: 1500
Heat Index: 37°   Visibility: 6mi
Dew Point: 37°   Wind: 16mph
Humidity: 100%   Direction: 210°SSW
Pressure: 29.74"   Gusts: NA
Location:  49.72°N, 5.62°E
Report Text: ELLX 281350Z 21014KT 190V250 9999 -RA FEW011 SCT013 BKN015 03/03 Q1007 TEMPO 21020G35KT BKN012
Loading
Personal Weather Stations






























Interactive Weather Map New forecast layout! Learn more

10-Day Weather Forecast

Advertisements
Track Severe Weather on mobile